createdAt,value
2023-05-16T00:02:42.539Z,101472.47
2023-05-16T00:05:46.697Z,101474.41
2023-05-16T00:08:51.656Z,101471.84
2023-05-16T00:11:55.300Z,101486.25
2023-05-16T00:14:59.410Z,101481.16
2023-05-16T00:18:03.083Z,101490.25
2023-05-16T00:21:07.432Z,101487.63
2023-05-16T00:24:12.347Z,101492.03
2023-05-16T00:27:15.819Z,101491.28
2023-05-16T00:30:19.530Z,101494.19
2023-05-16T00:33:23.104Z,101501.97
2023-05-16T00:36:26.612Z,101499.56
2023-05-16T00:39:32.289Z,101498.56
2023-05-16T00:42:35.815Z,101502.19
2023-05-16T00:45:39.505Z,101496.13
2023-05-16T00:48:42.982Z,101497.81
2023-05-16T00:51:46.809Z,101503.03
2023-05-16T00:54:52.667Z,101502.19
2023-05-16T00:57:56.929Z,101503.03
2023-05-16T01:01:02.072Z,101491.72
2023-05-16T01:04:07.067Z,101493.47
2023-05-16T01:07:10.759Z,101482.06
2023-05-16T01:10:16.781Z,101473.31
2023-05-16T01:13:31.680Z,101490.78
2023-05-16T01:16:47.714Z,101478.53
2023-05-16T01:20:08.280Z,101489.78
2023-05-16T01:23:35.086Z,101486.38
2023-05-16T01:26:41.200Z,101484.53
2023-05-16T01:29:44.702Z,101493.19
2023-05-16T01:32:48.362Z,101495.03
2023-05-16T01:36:04.315Z,101489.84
2023-05-16T01:39:28.995Z,101499.41
2023-05-16T01:42:38.194Z,101505.47
2023-05-16T01:45:52.263Z,101511.56
2023-05-16T01:49:17.841Z,101512.50
2023-05-16T01:52:32.812Z,101513.38
2023-05-16T01:55:46.714Z,101505.47
2023-05-16T01:58:54.453Z,101507.28
2023-05-16T02:01:59.480Z,101505.53
2023-05-16T02:05:03.012Z,101505.53
2023-05-16T02:08:07.141Z,101513.41
2023-05-16T02:11:10.755Z,101511.66
2023-05-16T02:14:15.710Z,101505.63
2023-05-16T02:17:19.506Z,101505.63
2023-05-16T02:20:23.291Z,101509.16
2023-05-16T02:23:26.787Z,101514.22
2023-05-16T02:26:30.249Z,101526.56
2023-05-16T02:29:35.166Z,101520.47
2023-05-16T02:32:39.070Z,101524.81
2023-05-16T02:35:43.750Z,101527.50
2023-05-16T02:38:47.397Z,101531.97
2023-05-16T02:41:50.901Z,101519.88
2023-05-16T02:44:55.790Z,101536.63
2023-05-16T02:47:59.321Z,101538.44
2023-05-16T02:51:02.817Z,101548.19
2023-05-16T02:54:09.350Z,101554.41
2023-05-16T02:57:12.892Z,101563.13
2023-05-16T03:00:18.971Z,101558.81
2023-05-16T03:03:22.600Z,101558.03
2023-05-16T03:06:26.229Z,101556.41
2023-05-16T03:09:29.794Z,101564.34
2023-05-16T03:12:33.890Z,101570.56
2023-05-16T03:15:38.947Z,101575.81
2023-05-16T03:18:42.656Z,101573.25
2023-05-16T03:21:46.256Z,101566.28
2023-05-16T03:24:49.950Z,101582.88
2023-05-16T03:27:53.611Z,101586.44
2023-05-16T03:30:59.111Z,101586.38
2023-05-16T03:34:02.611Z,101591.59
2023-05-16T03:37:06.953Z,101593.38
2023-05-16T03:40:11.658Z,101592.56
2023-05-16T03:43:15.358Z,101593.56
2023-05-16T03:46:20.342Z,101596.22
2023-05-16T03:49:28.588Z,101597.13
2023-05-16T03:52:32.153Z,101617.19
2023-05-16T03:55:35.781Z,101609.34
2023-05-16T03:58:39.400Z,101618.09
2023-05-16T04:01:44.569Z,101618.16
2023-05-16T04:04:48.214Z,101622.50
2023-05-16T04:07:51.765Z,101627.63
2023-05-16T04:10:55.915Z,101626.84
2023-05-16T04:14:02.028Z,101629.50
2023-05-16T04:17:07.333Z,101628.41
2023-05-16T04:20:12.258Z,101636.38
2023-05-16T04:23:16.146Z,101638.84
2023-05-16T04:26:22.623Z,101637.94
2023-05-16T04:29:26.627Z,101637.84
2023-05-16T04:32:34.610Z,101632.47
2023-05-16T04:35:38.363Z,101646.56
2023-05-16T04:38:41.891Z,101641.31
2023-05-16T04:41:45.454Z,101644.97
2023-05-16T04:44:49.013Z,101648.53
2023-05-16T04:47:54.041Z,101646.81
2023-05-16T04:50:57.767Z,101650.38
2023-05-16T04:54:01.379Z,101644.19
2023-05-16T04:57:05.493Z,101657.31
2023-05-16T05:00:12.401Z,101664.34
2023-05-16T05:03:18.251Z,101658.97
2023-05-16T05:06:21.871Z,101666.81
2023-05-16T05:09:26.107Z,101666.66
2023-05-16T05:12:29.629Z,101671.72
2023-05-16T05:15:33.348Z,101676.88
2023-05-16T05:18:38.423Z,101666.16
2023-05-16T05:21:42.148Z,101672.25
2023-05-16T05:24:45.706Z,101672.09
2023-05-16T05:27:49.304Z,101671.41
2023-05-16T05:30:52.845Z,101679.19
2023-05-16T05:33:57.761Z,101673.13
2023-05-16T05:37:01.270Z,101678.94
2023-05-16T05:40:05.706Z,101665.81
2023-05-16T05:43:09.156Z,101673.94
2023-05-16T05:46:13.105Z,101677.19
2023-05-16T05:49:18.413Z,101674.94
2023-05-16T05:52:22.058Z,101677.88
2023-05-16T05:55:25.914Z,101680.28
2023-05-16T05:58:29.638Z,101679.41
2023-05-16T06:01:33.189Z,101682.13
2023-05-16T06:04:38.861Z,101671.13
2023-05-16T06:07:42.350Z,101673.13
2023-05-16T06:10:46.486Z,101688.59
2023-05-16T06:13:50.041Z,101700.75
2023-05-16T06:16:53.717Z,101698.91
2023-05-16T06:19:58.820Z,101705.09
2023-05-16T06:23:02.542Z,101699.66
2023-05-16T06:26:06.277Z,101699.22
2023-05-16T06:29:09.869Z,101705.63
2023-05-16T06:32:13.626Z,101697.97
2023-05-16T06:35:18.941Z,101707.63
2023-05-16T06:38:22.548Z,101713.13
2023-05-16T06:41:26.498Z,101717.50
2023-05-16T06:44:30.057Z,101713.94
2023-05-16T06:47:33.691Z,101709.34
2023-05-16T06:50:38.673Z,101712.56
2023-05-16T06:53:42.265Z,101722.63
2023-05-16T06:56:46.822Z,101729.75
2023-05-16T06:59:50.370Z,101721.31
2023-05-16T07:02:54.129Z,101720.50
2023-05-16T07:05:59.055Z,101728.19
2023-05-16T07:09:03.138Z,101728.97
2023-05-16T07:12:07.694Z,101727.09
2023-05-16T07:15:31.294Z,101732.69
2023-05-16T07:18:35.157Z,101738.50
2023-05-16T07:21:40.281Z,101731.38
2023-05-16T07:24:44.019Z,101730.00
2023-05-16T07:27:47.566Z,101740.78
2023-05-16T07:30:51.179Z,101740.78
2023-05-16T07:33:55.249Z,101738.66
2023-05-16T07:37:00.225Z,101734.34
2023-05-16T07:40:04.824Z,101738.72
2023-05-16T07:43:08.388Z,101762.69
2023-05-16T07:46:12.772Z,101759.19
2023-05-16T07:49:16.453Z,101758.94
2023-05-16T07:52:21.633Z,101760.31
2023-05-16T07:55:25.422Z,101759.47
2023-05-16T07:58:29.520Z,101754.50
2023-05-16T08:01:33.252Z,101759.94
2023-05-16T08:04:36.895Z,101765.53
2023-05-16T08:07:41.910Z,101771.25
2023-05-16T08:10:45.612Z,101771.31
2023-05-16T08:13:49.401Z,101754.66
2023-05-16T08:16:52.951Z,101761.34
2023-05-16T08:19:56.795Z,101756.63
2023-05-16T08:23:01.848Z,101759.09
2023-05-16T08:26:05.827Z,101759.38
2023-05-16T08:29:09.545Z,101760.13
2023-05-16T08:32:13.329Z,101759.03
2023-05-16T08:35:17.116Z,101747.25
2023-05-16T08:38:22.559Z,101748.97
2023-05-16T08:41:26.198Z,101749.34
2023-05-16T08:44:30.991Z,101767.44
2023-05-16T08:47:36.822Z,101743.38
2023-05-16T08:50:42.834Z,101759.50
2023-05-16T08:53:55.454Z,101752.38
2023-05-16T08:57:01.096Z,101737.03
2023-05-16T09:00:11.884Z,101744.38
2023-05-16T09:03:16.042Z,101738.78
2023-05-16T09:06:20.610Z,101736.59
2023-05-16T09:09:25.752Z,101745.28
2023-05-16T09:12:29.393Z,101736.41
2023-05-16T09:15:34.698Z,101751.84
2023-05-16T09:18:38.844Z,101734.16
2023-05-16T09:21:43.146Z,101746.91
2023-05-16T09:24:48.790Z,101744.31
2023-05-16T09:27:54.965Z,101755.44
2023-05-16T09:31:00.274Z,101742.84
2023-05-16T09:34:04.816Z,101745.44
2023-05-16T09:37:08.420Z,101740.25
2023-05-16T09:40:14.495Z,101744.25
2023-05-16T09:43:18.913Z,101730.38
2023-05-16T09:46:27.695Z,101740.81
2023-05-16T09:49:31.501Z,101749.09
2023-05-16T09:52:35.290Z,101734.13
2023-05-16T09:55:40.190Z,101751.59
2023-05-16T09:58:46.588Z,101745.72
2023-05-16T10:01:52.295Z,101748.69
2023-05-16T10:04:55.856Z,101763.81
2023-05-16T10:08:00.117Z,101783.34
2023-05-16T10:11:07.368Z,101788.19
2023-05-16T10:14:13.082Z,101795.88
2023-05-16T10:17:17.557Z,101814.94
2023-05-16T10:20:24.271Z,101823.53
2023-05-16T10:23:30.773Z,101825.19
2023-05-16T10:26:36.330Z,101828.56
2023-05-16T10:29:53.510Z,101822.09
2023-05-16T10:33:00.829Z,101828.00
2023-05-16T10:36:05.590Z,101828.63
2023-05-16T10:39:10.011Z,101817.47
2023-05-16T10:42:18.386Z,101813.03
2023-05-16T10:45:23.341Z,101800.16
2023-05-16T10:48:35.315Z,101810.69
2023-05-16T10:51:40.030Z,101805.66
2023-05-16T10:54:51.051Z,101817.47
2023-05-16T10:57:55.977Z,101830.53
2023-05-16T11:01:22.230Z,101828.19
2023-05-16T11:04:45.946Z,101826.34
2023-05-16T11:08:06.595Z,101830.75
2023-05-16T11:11:45.602Z,101832.88
2023-05-16T11:14:53.592Z,101810.91
2023-05-16T11:18:09.535Z,101815.69
2023-05-16T11:21:13.253Z,101818.00
2023-05-16T11:24:31.063Z,101809.09
2023-05-16T11:27:37.338Z,101811.03
2023-05-16T11:30:45.843Z,101804.44
2023-05-16T11:33:49.684Z,101815.22
2023-05-16T11:36:53.429Z,101805.09
2023-05-16T11:40:01.691Z,101802.84
2023-05-16T11:43:07.335Z,101805.25
2023-05-16T11:46:14.941Z,101805.69
2023-05-16T11:49:19.865Z,101811.25
2023-05-16T11:52:23.638Z,101815.78
2023-05-16T11:55:41.143Z,101814.34
2023-05-16T11:58:47.406Z,101823.94
2023-05-16T12:01:53.136Z,101839.44
2023-05-16T12:04:57.028Z,101806.44
2023-05-16T12:08:01.003Z,101804.91
2023-05-16T12:11:04.878Z,101817.00
2023-05-16T12:14:09.812Z,101811.38
2023-05-16T12:17:15.491Z,101813.41
2023-05-16T12:20:19.973Z,101808.25
2023-05-16T12:23:23.626Z,101800.66
2023-05-16T12:26:30.831Z,101803.66
2023-05-16T12:29:34.715Z,101812.22
2023-05-16T12:32:40.488Z,101801.63
2023-05-16T12:35:47.493Z,101805.56
2023-05-16T12:38:52.258Z,101801.91
2023-05-16T12:41:55.782Z,101819.53
2023-05-16T12:44:59.326Z,101830.13
2023-05-16T12:48:14.012Z,101837.00
2023-05-16T12:51:20.181Z,101834.84
2023-05-16T12:54:23.906Z,101828.19
2023-05-16T12:57:27.797Z,101818.13
2023-05-16T13:00:32.136Z,101827.41
2023-05-16T13:03:38.144Z,101819.69
2023-05-16T13:06:57.264Z,101817.75
2023-05-16T13:10:02.563Z,101818.06
2023-05-16T13:13:06.300Z,101822.03
2023-05-16T13:16:10.392Z,101824.00
2023-05-16T13:19:15.486Z,101819.75
2023-05-16T13:22:19.178Z,101825.41
2023-05-16T13:25:23.023Z,101831.44
2023-05-16T13:28:26.925Z,101828.84
2023-05-16T13:31:30.513Z,101833.78
2023-05-16T13:34:35.543Z,101835.38
2023-05-16T13:37:39.747Z,101830.84
2023-05-16T13:40:43.296Z,101842.38
2023-05-16T13:43:46.865Z,101830.75
2023-05-16T13:46:50.939Z,101823.94
2023-05-16T13:49:56.057Z,101815.44
2023-05-16T13:52:59.738Z,101825.97
2023-05-16T13:56:03.339Z,101823.06
2023-05-16T13:59:07.646Z,101836.19
2023-05-16T14:02:14.978Z,101842.44
2023-05-16T14:05:20.439Z,101851.81
2023-05-16T14:08:23.951Z,101851.50
2023-05-16T14:11:29.278Z,101834.38
2023-05-16T14:14:33.144Z,101830.16
2023-05-16T14:17:36.997Z,101837.75
2023-05-16T14:20:42.079Z,101842.09
2023-05-16T14:23:45.686Z,101843.06
2023-05-16T14:26:49.420Z,101837.47
2023-05-16T14:29:52.932Z,101838.34
2023-05-16T14:32:56.554Z,101833.69
2023-05-16T14:36:01.563Z,101827.50
2023-05-16T14:39:05.411Z,101836.00
2023-05-16T14:42:09.194Z,101844.38
2023-05-16T14:45:13.821Z,101856.63
2023-05-16T14:48:17.983Z,101851.13
2023-05-16T14:51:22.956Z,101845.47
2023-05-16T14:54:26.629Z,101859.06
2023-05-16T14:57:30.226Z,101862.56
2023-05-16T15:00:33.849Z,101864.94
2023-05-16T15:03:53.819Z,101851.88
2023-05-16T15:07:00.685Z,101844.84
2023-05-16T15:10:04.300Z,101852.53
2023-05-16T15:13:07.881Z,101837.09
2023-05-16T15:16:11.782Z,101847.66
2023-05-16T15:19:15.453Z,101853.47
2023-05-16T15:22:20.585Z,101861.41
2023-05-16T15:25:24.159Z,101880.53
2023-05-16T15:28:27.907Z,101884.47
2023-05-16T15:31:32.255Z,101890.72
2023-05-16T15:34:37.040Z,101890.59
2023-05-16T15:37:42.004Z,101877.50
2023-05-16T15:40:45.688Z,101886.69
2023-05-16T15:43:49.646Z,101882.81
2023-05-16T15:46:53.317Z,101879.88
2023-05-16T15:49:56.917Z,101873.72
2023-05-16T15:53:01.984Z,101880.75
2023-05-16T15:56:06.217Z,101894.97
2023-05-16T15:59:09.860Z,101900.88
2023-05-16T16:02:13.559Z,101909.22
2023-05-16T16:05:17.594Z,101911.94
2023-05-16T16:08:22.575Z,101919.66
2023-05-16T16:11:28.035Z,101926.56
2023-05-16T16:14:31.529Z,101936.31
2023-05-16T16:17:35.389Z,101929.22
2023-05-16T16:20:38.972Z,101926.50
2023-05-16T16:23:43.867Z,101929.88
2023-05-16T16:26:47.545Z,101927.19
2023-05-16T16:29:51.196Z,101920.09
2023-05-16T16:32:55.034Z,101923.88
2023-05-16T16:35:59.421Z,101914.06
2023-05-16T16:39:05.807Z,101915.25
2023-05-16T16:42:09.765Z,101926.47
2023-05-16T16:45:13.556Z,101923.72
2023-05-16T16:48:17.175Z,101919.94
2023-05-16T16:51:21.056Z,101928.31
2023-05-16T16:54:26.158Z,101934.78
2023-05-16T16:57:29.805Z,101927.75
2023-05-16T17:00:33.619Z,101931.69
2023-05-16T17:03:37.192Z,101927.13
2023-05-16T17:06:41.097Z,101930.63
2023-05-16T17:09:46.443Z,101927.28
2023-05-16T17:12:50.108Z,101930.81
2023-05-16T17:15:53.770Z,101929.91
2023-05-16T17:18:57.630Z,101930.09
2023-05-16T17:22:01.321Z,101934.38
2023-05-16T17:25:08.069Z,101935.34
2023-05-16T17:28:11.694Z,101947.56
2023-05-16T17:31:15.973Z,101957.34
2023-05-16T17:34:19.552Z,101967.28
2023-05-16T17:37:24.307Z,101963.44
2023-05-16T17:40:29.385Z,101970.47
2023-05-16T17:43:33.729Z,101968.00
2023-05-16T17:46:38.487Z,101982.88
2023-05-16T17:49:42.075Z,101986.28
2023-05-16T17:52:46.425Z,101986.13
2023-05-16T17:55:51.720Z,101991.34
2023-05-16T17:58:55.298Z,101985.06
2023-05-16T18:01:58.946Z,101994.91
2023-05-16T18:05:02.598Z,101996.69
2023-05-16T18:08:08.570Z,101988.63
2023-05-16T18:11:13.938Z,101995.72
2023-05-16T18:14:17.525Z,101996.78
2023-05-16T18:17:21.309Z,101997.59
2023-05-16T18:20:24.888Z,101994.94
2023-05-16T18:23:28.477Z,101998.38
2023-05-16T18:26:33.489Z,101994.88
2023-05-16T18:29:37.185Z,102000.19
2023-05-16T18:32:41.685Z,102003.63
2023-05-16T18:35:45.389Z,102003.56
2023-05-16T18:38:48.995Z,102005.31
2023-05-16T18:41:54.080Z,102006.16
2023-05-16T18:44:57.745Z,102007.06
2023-05-16T18:48:01.488Z,102001.75
2023-05-16T18:51:05.739Z,102006.16
2023-05-16T18:54:09.400Z,102000.94
2023-05-16T18:57:14.789Z,102009.69
2023-05-16T19:00:20.096Z,102012.28
2023-05-16T19:03:23.769Z,102013.13
2023-05-16T19:06:27.652Z,102016.66
2023-05-16T19:09:32.565Z,102025.38
2023-05-16T19:12:37.501Z,102028.03
2023-05-16T19:15:41.344Z,102042.84
2023-05-16T19:18:45.191Z,102040.31
2023-05-16T19:21:49.015Z,102027.25
2023-05-16T19:24:52.739Z,102038.53
2023-05-16T19:27:57.749Z,102045.56
2023-05-16T19:31:01.401Z,102050.06
2023-05-16T19:34:05.650Z,102044.13
2023-05-16T19:37:09.715Z,102049.44
2023-05-16T19:40:16.323Z,102046.91
2023-05-16T19:43:22.128Z,102045.31
2023-05-16T19:46:25.742Z,102049.72
2023-05-16T19:49:29.429Z,102050.56
2023-05-16T19:52:33.125Z,102054.13
2023-05-16T19:55:39.180Z,102053.25
2023-05-16T19:58:44.447Z,102050.66
2023-05-16T20:01:48.059Z,102043.69
2023-05-16T20:04:52.050Z,102050.72
2023-05-16T20:07:56.181Z,102046.34
2023-05-16T20:11:00.053Z,102053.31
2023-05-16T20:14:05.073Z,102042.91
2023-05-16T20:17:08.729Z,102054.28
2023-05-16T20:20:12.880Z,102056.88
2023-05-16T20:23:16.537Z,102054.31
2023-05-16T20:26:20.110Z,102052.66
2023-05-16T20:29:25.545Z,102046.50
2023-05-16T20:32:29.441Z,102054.41
2023-05-16T20:35:33.208Z,102058.72
2023-05-16T20:38:38.125Z,102058.72
2023-05-16T20:41:41.656Z,102061.34
2023-05-16T20:44:46.659Z,102069.13
2023-05-16T20:47:51.253Z,102063.88
2023-05-16T20:50:56.476Z,102063.81
2023-05-16T20:54:00.138Z,102069.03
2023-05-16T20:57:03.814Z,102061.19
2023-05-16T21:00:10.862Z,102062.06
2023-05-16T21:03:14.898Z,102060.31
2023-05-16T21:06:18.461Z,102058.50
2023-05-16T21:09:22.101Z,102062.00
2023-05-16T21:12:25.758Z,102062.03
2023-05-16T21:15:30.873Z,102063.78
2023-05-16T21:18:34.551Z,102067.22
2023-05-16T21:21:39.580Z,102074.25
2023-05-16T21:24:43.196Z,102076.91
2023-05-16T21:27:46.732Z,102076.00
2023-05-16T21:30:51.707Z,102072.50
2023-05-16T21:33:55.349Z,102073.34
2023-05-16T21:36:59.980Z,102074.28
2023-05-16T21:40:03.836Z,102077.75
2023-05-16T21:43:07.423Z,102068.16
2023-05-16T21:46:12.333Z,102069.91
2023-05-16T21:49:15.997Z,102074.22
2023-05-16T21:52:19.607Z,102065.50
2023-05-16T21:55:23.160Z,102074.13
2023-05-16T21:58:26.756Z,102076.75
2023-05-16T22:01:31.768Z,102070.63
2023-05-16T22:04:35.643Z,102070.69
2023-05-16T22:07:39.234Z,102071.53
2023-05-16T22:10:43.048Z,102070.72
2023-05-16T22:13:46.762Z,102075.09
2023-05-16T22:16:52.237Z,102070.72
2023-05-16T22:19:55.841Z,102068.06
2023-05-16T22:22:59.445Z,102072.38
2023-05-16T22:26:03.153Z,102075.97
2023-05-16T22:29:06.872Z,102069.81
2023-05-16T22:32:12.301Z,102069.03
2023-05-16T22:35:15.989Z,102069.00
2023-05-16T22:38:19.588Z,102062.03
2023-05-16T22:41:24.102Z,102064.59
2023-05-16T22:44:28.073Z,102067.25
2023-05-16T22:47:32.983Z,102070.81
2023-05-16T22:50:36.599Z,102067.34
2023-05-16T22:53:40.594Z,102071.59
2023-05-16T22:56:44.301Z,102072.56
2023-05-16T22:59:47.996Z,102073.47
2023-05-16T23:02:53.601Z,102066.47
2023-05-16T23:05:57.655Z,102067.38
2023-05-16T23:09:02.434Z,102076.16
2023-05-16T23:12:06.576Z,102081.44
2023-05-16T23:15:11.290Z,102077.06
2023-05-16T23:18:16.453Z,102074.50
2023-05-16T23:21:20.032Z,102075.41
2023-05-16T23:24:25.083Z,102075.44
2023-05-16T23:27:28.939Z,102077.16
2023-05-16T23:30:32.461Z,102079.00
2023-05-16T23:33:37.387Z,102079.03
2023-05-16T23:36:40.924Z,102091.28
2023-05-16T23:39:44.666Z,102077.41
2023-05-16T23:42:48.210Z,102094.00
2023-05-16T23:45:51.897Z,102090.59
2023-05-16T23:48:57.997Z,102085.31
2023-05-16T23:52:01.797Z,102094.97
2023-05-16T23:55:06.200Z,102100.22
2023-05-16T23:58:09.812Z,102102.00
